createdAt,value
2023-01-17T00:02:17.021Z,79.17
2023-01-17T00:05:04.331Z,79.23
2023-01-17T00:07:51.469Z,79.37
2023-01-17T00:10:25.494Z,79.50
2023-01-17T00:12:59.464Z,79.52
2023-01-17T00:15:30.776Z,79.55
2023-01-17T00:17:59.765Z,79.57
2023-01-17T00:20:49.388Z,79.54
2023-01-17T00:24:01.681Z,79.33
2023-01-17T00:26:31.939Z,79.02
2023-01-17T00:29:00.402Z,78.92
2023-01-17T00:31:28.562Z,78.95
2023-01-17T00:33:56.787Z,78.85
2023-01-17T00:36:24.879Z,78.86
2023-01-17T00:38:53.366Z,78.91
2023-01-17T00:41:21.395Z,78.61
2023-01-17T00:44:07.978Z,78.28
2023-01-17T00:46:55.029Z,77.72
2023-01-17T00:49:41.875Z,77.21
2023-01-17T00:52:28.507Z,76.43
2023-01-17T00:55:15.440Z,76.25
2023-01-17T00:58:02.478Z,75.97
2023-01-17T01:00:49.702Z,76.00
2023-01-17T01:03:36.639Z,75.86
2023-01-17T01:06:24.960Z,75.64
2023-01-17T01:09:11.681Z,75.13
2023-01-17T01:11:58.548Z,75.25
2023-01-17T01:14:46.323Z,75.43
2023-01-17T01:17:32.932Z,75.51
2023-01-17T01:20:19.811Z,75.58
2023-01-17T01:23:07.216Z,75.34
2023-01-17T01:25:55.203Z,75.48
2023-01-17T01:28:42.384Z,75.69
2023-01-17T01:31:29.204Z,75.56
2023-01-17T01:33:57.319Z,75.34
2023-01-17T01:36:25.723Z,75.60
2023-01-17T01:38:54.685Z,75.49
2023-01-17T01:41:23.206Z,75.41
2023-01-17T01:43:53.838Z,75.46
2023-01-17T01:46:24.589Z,75.56
2023-01-17T01:49:06.776Z,75.72
2023-01-17T01:51:51.140Z,75.60
2023-01-17T01:54:28.324Z,75.29
2023-01-17T01:57:01.724Z,75.55
2023-01-17T01:59:32.380Z,75.88
2023-01-17T02:02:01.708Z,76.00
2023-01-17T02:04:29.927Z,75.97
2023-01-17T02:07:10.503Z,75.71
2023-01-17T02:09:38.790Z,75.54
2023-01-17T02:12:08.257Z,75.50
2023-01-17T02:14:36.396Z,75.52
2023-01-17T02:17:32.516Z,75.63
2023-01-17T02:20:06.596Z,75.56
2023-01-17T02:23:11.366Z,75.45
2023-01-17T02:26:17.284Z,75.53
2023-01-17T02:29:07.513Z,75.93
2023-01-17T02:31:51.777Z,76.14
2023-01-17T02:34:22.809Z,76.22
2023-01-17T02:37:01.721Z,75.98
2023-01-17T02:39:43.979Z,76.04
2023-01-17T02:42:18.277Z,76.22
2023-01-17T02:44:46.631Z,76.25
2023-01-17T02:47:29.535Z,76.27
2023-01-17T02:50:03.642Z,76.22
2023-01-17T02:52:37.940Z,76.14
2023-01-17T02:55:15.121Z,76.06
2023-01-17T02:58:31.316Z,76.12
2023-01-17T03:01:48.785Z,76.20
2023-01-17T03:04:48.293Z,76.03
2023-01-17T03:07:22.788Z,76.07
2023-01-17T03:09:56.497Z,76.05
2023-01-17T03:12:28.289Z,76.03
2023-01-17T03:14:57.208Z,76.15
2023-01-17T03:17:30.822Z,76.18
2023-01-17T03:19:59.632Z,76.24
2023-01-17T03:22:27.794Z,76.17
2023-01-17T03:24:55.889Z,76.20
2023-01-17T03:27:24.105Z,76.15
2023-01-17T03:29:52.317Z,76.05
2023-01-17T03:32:20.552Z,76.12
2023-01-17T03:34:48.906Z,76.18
2023-01-17T03:37:17.060Z,76.37
2023-01-17T03:39:45.360Z,76.48
2023-01-17T03:42:13.619Z,76.57
2023-01-17T03:44:41.773Z,76.68
2023-01-17T03:47:12.428Z,76.58
2023-01-17T03:49:40.921Z,76.63
2023-01-17T03:52:09.146Z,76.72
2023-01-17T03:54:37.529Z,76.83
2023-01-17T03:57:05.792Z,76.99
2023-01-17T03:59:34.258Z,77.12
2023-01-17T04:02:02.809Z,77.22
2023-01-17T04:04:31.127Z,77.67
2023-01-17T04:06:59.368Z,78.01
2023-01-17T04:09:27.516Z,78.07
2023-01-17T04:11:55.851Z,77.99
2023-01-17T04:14:23.894Z,78.14
2023-01-17T04:16:52.426Z,78.44
2023-01-17T04:19:20.933Z,78.84
2023-01-17T04:21:49.425Z,79.11
2023-01-17T04:24:18.111Z,79.26
2023-01-17T04:26:47.504Z,79.62
2023-01-17T04:29:15.925Z,79.71
2023-01-17T04:31:44.285Z,79.93
2023-01-17T04:34:12.434Z,79.98
2023-01-17T04:36:41.175Z,80.26
2023-01-17T04:39:09.580Z,80.71
2023-01-17T04:41:37.977Z,80.51
2023-01-17T04:44:06.335Z,80.34
2023-01-17T04:46:34.557Z,80.31
2023-01-17T04:49:03.300Z,80.35
2023-01-17T04:51:31.617Z,80.17
2023-01-17T04:53:59.741Z,80.15
2023-01-17T04:56:28.091Z,80.19
2023-01-17T04:58:59.501Z,80.21
2023-01-17T05:01:27.763Z,80.18
2023-01-17T05:03:55.970Z,79.97
2023-01-17T05:06:24.284Z,79.84
2023-01-17T05:08:52.989Z,79.61
2023-01-17T05:11:21.218Z,79.44
2023-01-17T05:13:49.480Z,78.93
2023-01-17T05:16:19.658Z,78.85
2023-01-17T05:18:52.951Z,78.30
2023-01-17T05:21:22.237Z,76.86
2023-01-17T05:23:50.897Z,75.87
2023-01-17T05:26:19.180Z,75.30
2023-01-17T05:28:47.346Z,75.71
2023-01-17T05:31:16.015Z,76.37
2023-01-17T05:33:44.186Z,76.66
2023-01-17T05:36:12.386Z,76.24
2023-01-17T05:38:40.497Z,75.72
2023-01-17T05:41:11.642Z,75.05
2023-01-17T05:43:39.781Z,74.81
2023-01-17T05:46:10.163Z,75.13
2023-01-17T05:48:38.298Z,75.11
2023-01-17T05:51:06.669Z,75.19
2023-01-17T05:53:34.999Z,75.33
2023-01-17T05:56:03.165Z,75.49
2023-01-17T05:58:34.051Z,75.73
2023-01-17T06:01:02.192Z,76.03
2023-01-17T06:03:30.366Z,76.23
2023-01-17T06:05:58.895Z,76.31
2023-01-17T06:08:27.039Z,76.39
2023-01-17T06:10:55.395Z,76.53
2023-01-17T06:13:23.736Z,76.73
2023-01-17T06:15:51.979Z,76.77
2023-01-17T06:18:20.121Z,76.72
2023-01-17T06:20:53.337Z,76.68
2023-01-17T06:23:23.260Z,76.83
2023-01-17T06:25:51.947Z,76.39
2023-01-17T06:28:22.355Z,76.13
2023-01-17T06:30:50.576Z,75.79
2023-01-17T06:33:18.756Z,75.46
2023-01-17T06:35:51.699Z,75.57
2023-01-17T06:38:20.194Z,75.50
2023-01-17T06:40:48.736Z,75.61
2023-01-17T06:43:17.318Z,75.62
2023-01-17T06:45:45.596Z,75.67
2023-01-17T06:48:14.099Z,75.83
2023-01-17T06:50:42.260Z,76.04
2023-01-17T06:53:10.642Z,76.36
2023-01-17T06:55:40.546Z,76.46
2023-01-17T06:58:09.563Z,76.69
2023-01-17T07:00:40.503Z,76.66
2023-01-17T07:03:27.467Z,76.40
2023-01-17T07:05:55.783Z,76.43
2023-01-17T07:08:24.050Z,76.56
2023-01-17T07:11:01.578Z,76.80
2023-01-17T07:13:30.941Z,77.02
2023-01-17T07:16:01.374Z,77.18
2023-01-17T07:18:30.622Z,77.27
2023-01-17T07:20:59.024Z,77.50
2023-01-17T07:23:27.341Z,77.51
2023-01-17T07:26:00.627Z,77.67
2023-01-17T07:28:29.318Z,78.03
2023-01-17T07:30:57.604Z,78.24
2023-01-17T07:33:26.020Z,78.36
2023-01-17T07:35:54.395Z,78.41
2023-01-17T07:38:22.713Z,78.49
2023-01-17T07:40:50.902Z,78.67
2023-01-17T07:43:19.179Z,78.85
2023-01-17T07:45:53.660Z,78.90
2023-01-17T07:48:24.250Z,78.92
2023-01-17T07:50:53.494Z,78.94
2023-01-17T07:53:23.945Z,79.00
2023-01-17T07:55:52.612Z,78.60
2023-01-17T07:58:21.773Z,78.46
2023-01-17T08:00:50.130Z,78.24
2023-01-17T08:03:18.700Z,78.07
2023-01-17T08:05:55.918Z,77.96
2023-01-17T08:08:24.417Z,77.67
2023-01-17T08:10:55.147Z,77.58
2023-01-17T08:13:25.694Z,77.84
2023-01-17T08:15:54.756Z,77.93
2023-01-17T08:18:23.041Z,77.97
2023-01-17T08:20:51.312Z,77.97
2023-01-17T08:23:19.788Z,77.78
2023-01-17T08:25:48.869Z,77.35
2023-01-17T08:28:17.178Z,76.84
2023-01-17T08:30:45.921Z,76.64
2023-01-17T08:33:14.129Z,76.75
2023-01-17T08:35:54.528Z,76.41
2023-01-17T08:38:24.011Z,76.03
2023-01-17T08:40:52.340Z,75.66
2023-01-17T08:43:20.671Z,75.61
2023-01-17T08:45:50.363Z,73.66
2023-01-17T08:48:18.617Z,71.56
2023-01-17T08:50:46.939Z,70.70
2023-01-17T08:53:15.436Z,69.84
2023-01-17T08:55:44.104Z,69.45
2023-01-17T08:58:12.436Z,68.40
2023-01-17T09:00:40.617Z,67.89
2023-01-17T09:03:14.401Z,67.58
2023-01-17T09:05:42.687Z,68.03
2023-01-17T09:08:13.364Z,67.27
2023-01-17T09:10:41.590Z,66.69
2023-01-17T09:13:09.918Z,66.52
2023-01-17T09:15:38.084Z,65.37
2023-01-17T09:18:06.319Z,65.46
2023-01-17T09:20:34.428Z,65.56
2023-01-17T09:23:03.755Z,65.01
2023-01-17T09:25:32.068Z,65.53
2023-01-17T09:28:00.520Z,65.89
2023-01-17T09:30:29.318Z,66.36
2023-01-17T09:32:57.691Z,65.96
2023-01-17T09:35:25.884Z,65.04
2023-01-17T09:37:55.810Z,65.72
2023-01-17T09:40:25.944Z,65.27
2023-01-17T09:43:01.581Z,64.87
2023-01-17T09:45:58.215Z,64.87
2023-01-17T09:48:38.969Z,64.21
2023-01-17T09:51:17.203Z,61.89
2023-01-17T09:53:45.847Z,60.56
2023-01-17T09:56:29.676Z,62.13
2023-01-17T09:59:10.084Z,61.02
2023-01-17T10:02:06.461Z,59.93
2023-01-17T10:05:02.734Z,60.59
2023-01-17T10:07:57.935Z,60.76
2023-01-17T10:10:56.064Z,61.48
2023-01-17T10:13:40.736Z,59.79
2023-01-17T10:16:46.560Z,60.02
2023-01-17T10:19:41.172Z,59.63
2023-01-17T10:22:33.803Z,57.88
2023-01-17T10:25:33.925Z,56.48
2023-01-17T10:28:13.480Z,56.86
2023-01-17T10:30:51.483Z,55.50
2023-01-17T10:33:27.758Z,53.82
2023-01-17T10:36:03.928Z,51.72
2023-01-17T10:38:36.181Z,52.96
2023-01-17T10:41:26.458Z,53.28
2023-01-17T10:44:42.476Z,52.65
2023-01-17T10:47:10.666Z,50.54
2023-01-17T10:49:45.421Z,50.91
2023-01-17T10:52:27.208Z,49.83
2023-01-17T10:55:17.182Z,49.27
2023-01-17T10:57:48.778Z,48.91
2023-01-17T11:00:39.925Z,46.54
2023-01-17T11:03:10.982Z,47.27
2023-01-17T11:05:41.305Z,48.04
2023-01-17T11:08:14.665Z,46.25
2023-01-17T11:10:46.650Z,46.03
2023-01-17T11:13:24.564Z,44.00
2023-01-17T11:16:00.897Z,42.45
2023-01-17T11:18:33.455Z,42.37
2023-01-17T11:21:21.473Z,41.20
2023-01-17T11:23:53.826Z,40.95
2023-01-17T11:26:33.018Z,40.53
2023-01-17T11:29:31.636Z,40.97
2023-01-17T11:32:30.229Z,41.87
2023-01-17T11:35:24.583Z,41.49
2023-01-17T11:38:06.562Z,41.41
2023-01-17T11:40:44.453Z,41.48
2023-01-17T11:43:12.960Z,41.74
2023-01-17T11:45:41.941Z,42.20
2023-01-17T11:48:13.005Z,42.62
2023-01-17T11:51:04.420Z,42.74
2023-01-17T11:53:39.681Z,42.72
2023-01-17T11:56:38.269Z,42.95
2023-01-17T11:59:29.795Z,42.39
2023-01-17T12:02:31.934Z,43.11
2023-01-17T12:05:28.274Z,43.30
2023-01-17T12:08:17.764Z,43.75
2023-01-17T12:10:46.123Z,43.80
2023-01-17T12:14:01.894Z,43.98
2023-01-17T12:16:38.903Z,44.43
2023-01-17T12:19:25.756Z,44.72
2023-01-17T12:22:29.777Z,44.23
2023-01-17T12:25:23.770Z,43.49
2023-01-17T12:28:23.014Z,42.32
2023-01-17T12:31:12.904Z,42.59
2023-01-17T12:33:51.828Z,42.90
2023-01-17T12:36:39.071Z,42.66
2023-01-17T12:39:11.989Z,42.63
2023-01-17T12:41:59.981Z,42.46
2023-01-17T12:44:41.596Z,42.65
2023-01-17T12:47:11.580Z,42.93
2023-01-17T12:49:48.680Z,42.29
2023-01-17T12:52:35.208Z,42.28
2023-01-17T12:55:10.734Z,41.90
2023-01-17T12:57:44.329Z,42.08
2023-01-17T13:00:25.736Z,42.15
2023-01-17T13:03:04.934Z,41.72
2023-01-17T13:05:38.489Z,42.04
2023-01-17T13:08:23.976Z,42.10
2023-01-17T13:10:56.026Z,42.17
2023-01-17T13:13:27.943Z,42.69
2023-01-17T13:16:02.758Z,41.65
2023-01-17T13:18:33.287Z,42.18
2023-01-17T13:21:23.891Z,42.24
2023-01-17T13:24:06.903Z,40.73
2023-01-17T13:26:51.924Z,39.59
2023-01-17T13:29:40.072Z,39.02
2023-01-17T13:32:27.757Z,38.97
2023-01-17T13:35:00.962Z,39.18
2023-01-17T13:38:17.433Z,39.81
2023-01-17T13:40:58.629Z,39.89
2023-01-17T13:43:31.337Z,40.05
2023-01-17T13:46:05.389Z,40.02
2023-01-17T13:48:37.869Z,40.35
2023-01-17T13:51:06.774Z,40.73
2023-01-17T13:53:34.835Z,41.18
2023-01-17T13:56:32.614Z,41.82
2023-01-17T13:59:03.762Z,42.17
2023-01-17T14:01:32.116Z,42.54
2023-01-17T14:04:07.824Z,43.21
2023-01-17T14:06:36.245Z,43.73
2023-01-17T14:09:25.525Z,43.96
2023-01-17T14:12:04.972Z,44.24
2023-01-17T14:14:55.724Z,44.69
2023-01-17T14:17:25.860Z,44.71
2023-01-17T14:20:25.444Z,45.12
2023-01-17T14:23:00.844Z,44.74
2023-01-17T14:25:38.368Z,45.23
2023-01-17T14:28:22.235Z,45.63
2023-01-17T14:30:55.994Z,46.24
2023-01-17T14:33:37.266Z,46.88
2023-01-17T14:36:28.043Z,47.47
2023-01-17T14:38:56.964Z,48.14
2023-01-17T14:41:28.457Z,48.63
2023-01-17T14:44:00.167Z,49.19
2023-01-17T14:46:36.399Z,49.53
2023-01-17T14:49:08.661Z,50.22
2023-01-17T14:51:39.111Z,50.66
2023-01-17T14:54:21.346Z,51.32
2023-01-17T14:56:49.507Z,52.17
2023-01-17T14:59:22.250Z,52.76
2023-01-17T15:02:06.709Z,54.29
2023-01-17T15:04:39.904Z,57.78
2023-01-17T15:07:16.462Z,60.32
2023-01-17T15:09:45.305Z,62.12
2023-01-17T15:12:14.723Z,62.86
2023-01-17T15:14:46.036Z,63.17
2023-01-17T15:17:24.963Z,64.21
2023-01-17T15:20:00.345Z,64.60
2023-01-17T15:22:29.950Z,65.27
2023-01-17T15:25:00.047Z,65.76
2023-01-17T15:27:28.550Z,65.63
2023-01-17T15:30:01.916Z,66.09
2023-01-17T15:32:32.947Z,66.07
2023-01-17T15:35:03.126Z,66.54
2023-01-17T15:37:34.862Z,67.14
2023-01-17T15:40:06.703Z,67.11
2023-01-17T15:42:39.793Z,67.60
2023-01-17T15:45:15.672Z,68.04
2023-01-17T15:47:43.830Z,68.48
2023-01-17T15:50:25.669Z,68.70
2023-01-17T15:53:01.118Z,68.99
2023-01-17T15:55:33.807Z,69.63
2023-01-17T15:58:02.836Z,69.43
2023-01-17T16:00:38.340Z,69.88
2023-01-17T16:03:20.309Z,70.00
2023-01-17T16:05:50.004Z,69.67
2023-01-17T16:08:38.667Z,69.91
2023-01-17T16:11:11.819Z,70.33
2023-01-17T16:13:43.510Z,70.31
2023-01-17T16:16:16.269Z,70.24
2023-01-17T16:18:45.006Z,70.10
2023-01-17T16:21:21.419Z,70.24
2023-01-17T16:23:50.191Z,70.48
2023-01-17T16:26:18.557Z,71.05
2023-01-17T16:28:47.368Z,71.07
2023-01-17T16:31:17.062Z,71.13
2023-01-17T16:33:46.227Z,71.76
2023-01-17T16:36:16.689Z,72.79
2023-01-17T16:38:45.822Z,73.64
2023-01-17T16:41:14.066Z,73.23
2023-01-17T16:43:42.333Z,72.79
2023-01-17T16:46:12.955Z,72.14
2023-01-17T16:48:41.195Z,71.68
2023-01-17T16:51:09.474Z,71.24
2023-01-17T16:53:37.846Z,71.03
2023-01-17T16:56:12.205Z,70.75
2023-01-17T16:58:41.749Z,70.65
2023-01-17T17:01:21.395Z,70.49
2023-01-17T17:03:50.013Z,70.45
2023-01-17T17:06:18.622Z,70.52
2023-01-17T17:08:47.746Z,70.38
2023-01-17T17:11:18.654Z,70.49
2023-01-17T17:13:49.376Z,70.25
2023-01-17T17:16:26.755Z,69.93
2023-01-17T17:19:00.715Z,69.84
2023-01-17T17:21:30.821Z,69.55
2023-01-17T17:24:01.004Z,69.28
2023-01-17T17:26:36.772Z,69.33
2023-01-17T17:29:06.518Z,69.26
2023-01-17T17:31:34.587Z,69.21
2023-01-17T17:34:04.893Z,69.29
2023-01-17T17:36:34.628Z,69.40
2023-01-17T17:39:04.884Z,69.49
2023-01-17T17:41:35.711Z,69.68
2023-01-17T17:44:04.339Z,69.79
2023-01-17T17:46:33.987Z,70.13
2023-01-17T17:49:06.926Z,70.06
2023-01-17T17:51:37.836Z,70.10
2023-01-17T17:54:09.349Z,70.04
2023-01-17T17:56:38.632Z,70.00
2023-01-17T17:59:09.113Z,69.98
2023-01-17T18:01:41.123Z,70.13
2023-01-17T18:04:18.557Z,70.17
2023-01-17T18:06:49.415Z,70.46
2023-01-17T18:09:17.909Z,70.82
2023-01-17T18:11:45.965Z,71.01
2023-01-17T18:14:15.861Z,71.32
2023-01-17T18:16:45.105Z,71.55
2023-01-17T18:19:19.863Z,71.75
2023-01-17T18:21:50.464Z,72.25
2023-01-17T18:24:21.811Z,72.76
2023-01-17T18:26:52.892Z,73.22
2023-01-17T18:29:22.600Z,73.35
2023-01-17T18:31:51.915Z,73.59
2023-01-17T18:34:24.209Z,74.06
2023-01-17T18:36:53.737Z,74.45
2023-01-17T18:39:25.336Z,74.85
2023-01-17T18:41:54.422Z,75.29
2023-01-17T18:44:24.492Z,75.70
2023-01-17T18:46:55.211Z,76.22
2023-01-17T18:49:23.458Z,76.75
2023-01-17T18:51:51.877Z,76.97
2023-01-17T18:54:20.617Z,77.09
2023-01-17T18:56:49.303Z,77.23
2023-01-17T18:59:18.584Z,77.26
2023-01-17T19:01:47.624Z,77.49
2023-01-17T19:04:20.204Z,77.62
2023-01-17T19:06:48.509Z,78.18
2023-01-17T19:09:18.671Z,78.13
2023-01-17T19:11:47.683Z,78.35
2023-01-17T19:14:16.087Z,78.47
2023-01-17T19:16:45.085Z,78.76
2023-01-17T19:19:15.083Z,79.11
2023-01-17T19:21:43.310Z,79.21
2023-01-17T19:24:15.380Z,79.28
2023-01-17T19:26:44.560Z,79.20
2023-01-17T19:29:12.667Z,79.24
2023-01-17T19:31:43.409Z,79.78
2023-01-17T19:34:18.996Z,80.04
2023-01-17T19:36:47.793Z,80.10
2023-01-17T19:39:16.063Z,79.98
2023-01-17T19:41:48.502Z,80.07
2023-01-17T19:44:16.766Z,80.35
2023-01-17T19:46:46.212Z,80.33
2023-01-17T19:49:21.618Z,80.50
2023-01-17T19:51:50.329Z,80.49
2023-01-17T19:54:18.649Z,81.03
2023-01-17T19:56:46.976Z,81.31
2023-01-17T19:59:15.757Z,81.56
2023-01-17T20:01:44.014Z,81.77
2023-01-17T20:04:13.022Z,82.06
2023-01-17T20:06:41.370Z,82.18
2023-01-17T20:09:09.872Z,82.63
2023-01-17T20:11:39.067Z,82.86
2023-01-17T20:14:07.172Z,83.07
2023-01-17T20:16:38.001Z,83.35
2023-01-17T20:19:06.316Z,83.52
2023-01-17T20:21:38.133Z,83.79
2023-01-17T20:24:06.694Z,84.11
2023-01-17T20:26:35.722Z,84.18
2023-01-17T20:29:15.843Z,84.38
2023-01-17T20:31:45.266Z,84.74
2023-01-17T20:34:14.599Z,84.61
2023-01-17T20:36:45.893Z,84.67
2023-01-17T20:39:15.102Z,84.57
2023-01-17T20:41:46.332Z,84.73
2023-01-17T20:44:15.915Z,84.60
2023-01-17T20:46:44.629Z,84.50
2023-01-17T20:49:16.320Z,84.85
2023-01-17T20:51:45.681Z,85.01
2023-01-17T20:54:16.430Z,85.13
2023-01-17T20:56:47.442Z,85.08
2023-01-17T20:59:18.535Z,85.26
2023-01-17T21:01:48.275Z,85.29
2023-01-17T21:04:18.059Z,85.45
2023-01-17T21:06:46.245Z,85.76
2023-01-17T21:09:15.484Z,86.12
2023-01-17T21:11:43.751Z,86.30
2023-01-17T21:14:11.957Z,86.32
2023-01-17T21:16:40.931Z,86.75
2023-01-17T21:19:12.214Z,86.93
2023-01-17T21:21:44.025Z,87.08
2023-01-17T21:24:22.505Z,87.41
2023-01-17T21:26:54.452Z,87.59
2023-01-17T21:29:28.694Z,87.92
2023-01-17T21:32:02.770Z,88.07
2023-01-17T21:34:32.774Z,88.19
2023-01-17T21:37:03.423Z,88.34
2023-01-17T21:39:35.141Z,88.42
2023-01-17T21:42:05.855Z,88.57
2023-01-17T21:44:38.789Z,89.09
2023-01-17T21:47:07.107Z,89.22
2023-01-17T21:49:35.287Z,89.06
2023-01-17T21:52:04.724Z,89.06
2023-01-17T21:54:51.360Z,89.21
2023-01-17T21:57:40.756Z,89.13
2023-01-17T22:00:16.008Z,89.15
2023-01-17T22:02:46.354Z,89.13
2023-01-17T22:05:16.588Z,89.07
2023-01-17T22:08:05.482Z,89.01
2023-01-17T22:10:44.547Z,89.07
2023-01-17T22:13:19.950Z,89.13
2023-01-17T22:15:58.684Z,89.18
2023-01-17T22:18:28.066Z,88.78
2023-01-17T22:20:57.638Z,88.67
2023-01-17T22:23:25.944Z,88.37
2023-01-17T22:25:54.208Z,88.06
2023-01-17T22:28:22.559Z,87.90
2023-01-17T22:30:52.083Z,87.91
2023-01-17T22:33:23.280Z,87.73
2023-01-17T22:35:59.025Z,87.51
2023-01-17T22:38:27.285Z,87.40
2023-01-17T22:41:08.134Z,87.44
2023-01-17T22:43:40.612Z,87.43
2023-01-17T22:46:10.981Z,87.77
2023-01-17T22:48:42.576Z,87.56
2023-01-17T22:51:13.142Z,87.68
2023-01-17T22:53:44.367Z,87.70
2023-01-17T22:56:18.691Z,87.64
2023-01-17T22:58:48.939Z,87.71
2023-01-17T23:01:18.747Z,87.69
2023-01-17T23:03:52.490Z,87.56
2023-01-17T23:06:23.988Z,87.48
2023-01-17T23:08:55.655Z,87.59
2023-01-17T23:11:39.016Z,87.66
2023-01-17T23:14:17.599Z,88.13
2023-01-17T23:17:21.326Z,88.00
2023-01-17T23:20:01.755Z,88.03
2023-01-17T23:22:37.187Z,88.12
2023-01-17T23:25:20.099Z,88.07
2023-01-17T23:28:09.579Z,88.29
2023-01-17T23:30:48.186Z,88.70
2023-01-17T23:33:17.808Z,88.78
2023-01-17T23:36:00.979Z,89.25
2023-01-17T23:38:37.790Z,89.29
2023-01-17T23:41:29.321Z,89.53
2023-01-17T23:44:01.972Z,89.80
2023-01-17T23:46:37.585Z,90.22
2023-01-17T23:49:13.917Z,90.56
2023-01-17T23:51:53.291Z,90.45
2023-01-17T23:54:25.813Z,90.61
2023-01-17T23:56:56.378Z,90.47
2023-01-17T23:59:32.625Z,90.72
